Weather observations for the past three days for
San Luis Obispo, San Luis Obispo County-Mc Chesney Field
Metric (Imperial)
Date Time (pdt) Wind (kph) Vis. (km) Weather Sky Cond. Temperature (ºC) Relative Humidity Wind Chill (°C) Heat Index (°C) Pressure Precipitation (cm)
Air Dwpt 6 hour altimeter (cm) sea level (mb) 1 hr 3 hr 6 hr
Max. Min.
31 05:56 NW 6 9.66 Overcast with Haze OVC012 14.4 11.1 81% 76.05 1013.8
31 04:56 Vrbl 6 8.05 Overcast with Haze OVC012 14.4 11.7 15 14.4 84% 76.02 1013.4
31 03:56 NW 9 8.05 Overcast with Haze OVC012 14.4 11.7 84% 76.02 1013.5
31 02:56 NW 9 14.48 Overcast OVC013 14.4 11.7 84% 76.02 1013.4
31 01:56 NW 9 14.48 Overcast OVC012 15 12.2 83% 76.05 1013.6
31 00:56 NW 15 12.87 Overcast OVC011 15 12.2 83% 76.05 1013.8
30 23:56 NW 13 12.87 Overcast OVC011 15 12.2 83% 76.05 1013.7
30 22:56 N 17 12.87 Overcast OVC011 15 12.2 20.6 14.4 83% 76.05 1013.7
30 21:56 NW 19 12.87 Mostly Cloudy BKN011 15 12.2 83% 76.07 1014.0
30 20:56 NW 20 14.48 A Few Clouds FEW011 15 12.2 83% 76.05 1013.7
30 19:56 NW 20 16.09 Fair CLR 15 12.2 83% 76 1013.0
30 18:56 NW 28 16.09 Fair CLR 16.7 12.2 75% 76 1013.0
30 17:56 NW 33 16.09 Fair and Breezy CLR 18.3 11.7 66% 75.97 1012.8
30 16:56 NW 30 16.09 Fair CLR 20.6 11.7 22.8 19.4 57% 75.95 1012.5
30 15:56 NW 28 G 48 16.09 Fair CLR 21.7 11.7 53% 75.97 1012.7
30 14:56 NW 26 16.09 Fair CLR 22.2 11.7 52% 76.02 1013.2
30 13:56 NW 31 16.09 Fair CLR 22.2 11.7 52% 76.02 1013.5
30 12:56 NW 28 16.09 Fair CLR 21.7 11.7 53% 76.05 1013.6
30 11:56 NW 26 16.09 Fair CLR 21.7 12.2 55% 76.07 1013.9
30 10:56 NE 6 16.09 Fair CLR 19.4 11.7 19.4 10.6 61% 76.1 1014.2
30 09:56 Calm 11.27 Fair CLR 15.6 12.2 80% 76.07 1014.0
30 08:56 W 6 4.83 Fog/Mist OVC004 12.8 12.2 96% 76.07 1014.2
30 07:56 Calm 0.40 Fog VV003 11.1 11.1 100% 76.07 1014.1
30 06:56 NW 7 0.24 Fog VV002 10.6 10.6 100% 76.02 1013.5
30 05:56 Calm 0.40 Fog VV002 11.1 10.6 97% 76.02 1013.4
30 04:56 Calm 12.87 Overcast OVC006 10.6 9.4 13.9 10.6 92% 76 1013.1
30 03:56 Calm 11.27 Fair CLR 10.6 9.4 92% 76 1013.1
30 02:56 SE 7 11.27 Fair CLR 11.1 10 93% 76 1013.0
30 01:56 E 11 11.27 Fair CLR 11.7 10.6 93% 76 1012.9
30 00:56 E 7 12.87 Fair CLR 11.7 10.6 93% 76 1013.1
29 23:56 SE 6 12.87 Fair CLR 13.3 11.1 87% 76.02 1013.3
29 22:56 Calm 12.87 Fair CLR 13.3 12.2 21.1 13.3 93% 76.02 1013.4
29 21:56 W 6 14.48 Fair CLR 14.4 12.8 90% 76.05 1013.6
29 20:56 NW 15 14.48 Fair CLR 14.4 12.8 90% 76.02 1013.3
29 19:56 NW 26 14.48 Fair CLR 15 12.8 87% 75.97 1012.7
29 18:56 NW 24 12.87 Fair CLR 17.2 12.8 76% 75.95 1012.4
29 17:56 NW 28 12.87 Fair CLR 18.9 12.8 68% 75.97 1012.6
29 16:56 NW 35 14.48 Fair and Breezy CLR 20 12.8 22.2 18.9 63% 75.95 1012.3
29 15:56 NW 30 14.48 Fair CLR 21.7 13.3 59% 75.95 1012.5
29 14:56 NW 31 16.09 Fair CLR 22.2 13.3 57% 76 1013.1
29 13:56 NW 30 16.09 Fair CLR 21.7 13.3 59% 76.02 1013.2
29 12:56 NW 24 16.09 Fair CLR 21.7 13.3 59% 76.07 1014.0
29 11:56 NW 19 16.09 Fair CLR 21.1 13.3 61% 76.12 1014.7
29 10:56 W 11 16.09 Fair CLR 18.9 13.3 18.9 13.9 70% 76.1 1014.4
29 09:56 W 11 16.09 Fair CLR 17.8 12.8 73% 76.12 1014.6
29 08:56 NW 17 14.48 Fair CLR 15 12.8 87% 76.1 1014.4
29 07:56 NW 24 12.87 A Few Clouds FEW003 14.4 12.8 90% 76.1 1014.5
29 06:56 NW 15 9.66 Fog/Mist FEW002 13.9 12.8 93% 76.07 1014.0
29 05:56 W 11 12.87 Fair CLR 13.9 12.8 93% 76 1013.0
29 04:56 W 9 14.48 Fair CLR 14.4 13.3 16.7 14.4 93% 75.97 1012.7
29 03:56 W 11 14.48 Fair CLR 14.4 12.8 90% 75.97 1012.6
29 02:56 NW 7 14.48 Fair CLR 15 12.8 87% 75.95 1012.4
29 01:56 Calm 16.09 Fair CLR 15.6 13.3 86% 76 1012.8
29 00:56 NW 6 16.09 Fair CLR 16.1 13.3 84% 75.97 1012.6
28 23:56 Calm 16.09 Fair CLR 16.1 13.3 84% 75.97 1012.6
28 22:56 Calm 16.09 Fair CLR 16.7 13.3 25 16.1 80% 75.97 1012.7
28 21:56 W 9 16.09 Fair CLR 16.1 13.3 84% 75.97 1012.6
28 20:56 NW 17 16.09 Fair CLR 16.1 13.3 84% 75.92 1012.1
28 19:56 NW 22 16.09 Fair CLR 17.8 13.3 75% 75.9 1011.5
28 18:56 NW 20 16.09 Fair CLR 20 13.9 68% 75.9 1011.5
28 17:56 NW 13 16.09 Fair CLR 25 13.3 48% 26 75.9 1011.7
28 16:56 NW 22 16.09 Fair CLR 24.4 13.3 31.7 23.3 50% 26 75.92 1012.0
28 15:56 NW 22 16.09 Fair CLR 25.6 13.9 48% 26 75.92 1011.9
28 14:56 NW 26 16.09 Fair CLR 25 12.8 47% 26 75.95 1012.3
28 13:56 NW 22 G 37 16.09 Fair CLR 24.4 13.9 52% 26 75.95 1012.3
28 12:56 NW 33 G 41 16.09 Fair and Breezy CLR 26.7 13.3 44% 27 76 1012.8
28 11:56 W 7 16.09 Fair CLR 28.3 13.3 40% 28 76.02 1013.2
28 10:56 Calm 16.09 A Few Clouds FEW080 FEW100 25 13.9 25 16.1 50% 26 76.05 1013.6
28 09:56 Vrbl 6 16.09 A Few Clouds FEW048 FEW085 21.7 13.9 61% 76.02 1013.4
28 08:56 Calm 16.09 Fair CLR 19.4 13.9 71% 76.05 1013.5
28 07:56 NW 6 16.09 Fair CLR 17.8 13.9 78% 76.07 1013.8
28 06:56 NW 17 14.48 Fair CLR 16.7 13.9 84% 76 1012.7
Date Time (pdt) Wind (kph) Vis. (km) Weather Sky Cond. Air Dwpt Max. Min. Relative Humidity Wind Chill (°C) Heat Index (°C) altimeter (cm) sea level (mb) 1 hr 3 hr 6 hr
6 hour
Temperature (ºC) Pressure Precipitation (cm)